Slide Mountain Weather observations

Data are for 10 minute period ending at time listed.
 Day   Time   Solar   Ave.   Ave.  Ave.  Vector  Max.    Baro.  
  of    of     Rad.   Air    Rel.  Wind   Wind   Wind   Press.  
Year   Day            Temp.  Hum.  Speed  Dir.   Gust           
2018   (PST)  Kw/m2    F      %     mph   deg.    mph     mb.   
-----------------------------------------------------------------
 287   10:50   0.60   28.3    47   12.8    65     26.4    714.8 
 287   11:00   0.60   28.8    47   12.5    70     29.1    714.8 
 287   11:10   0.61   29.0    46   12.3    61     27.9    714.9 
 287   11:20   0.62   29.1    46   11.6    50     30.1    714.9 
 287   11:30   0.62   28.3    46   12.4    48     28.2    715.0 
 287   11:40   0.62   28.3    48   14.9    60     28.6    715.0 
 287   11:50   0.63   29.4    47    9.5    59     18.4    715.0 
 287   12:00   0.63   28.4    50   13.3    53     26.7    715.0 
 287   12:10   0.62   29.2    48   13.3    55     29.6    715.0 
 287   12:20   0.62   28.8    50   14.1    56     27.9    715.0 
 287   12:30   0.62   28.8    50   13.0    54     27.4    715.0 
 287   12:40   0.61   28.8    50   12.7    55     25.0    715.0 
 287   12:50   0.60   29.7    48    9.8    74     23.1    715.0 
 287   13:00   0.59   30.2    46    8.1    58     19.1    715.1 
 287   13:10   0.58   30.0    45    9.2    56     22.9    715.1 
 287   13:20   0.57   29.9    45    9.7    50     22.5    715.0 
 287   13:30   0.56   29.0    46   11.7    63     26.1    715.1 
 287   13:40   0.54   28.9    46   13.1    59     31.6    715.1 
 287   13:50   0.53   29.5    44   13.8    66     29.1    715.1 
 287   14:00   0.51   29.4    44   13.6    58     28.2    715.1 
 287   14:10   0.49   29.5    45   15.0    66     29.8    715.1 
 287   14:20   0.47   29.4    44   12.5    68     23.8    715.2 
 287   14:30   0.45   28.8    44   14.3    65     29.3    715.2 
 287   14:40   0.43   28.3    46   15.7    71     30.7    715.3 
 287   14:50   0.41   28.3    46   14.5    70     32.9    715.3 
 287   15:00   0.39   28.1    45   15.8    66     30.2    715.2 
 287   15:10   0.36   27.4    46   15.4    67     34.5    715.2 
 287   15:20   0.34   27.1    46   16.0    64     30.5    715.1 
 287   15:30   0.31   26.9    47   16.0    68     27.4    715.1 
 287   15:40   0.28   26.7    47   16.1    69     26.4    715.1 
 287   15:50   0.26   26.6    47   15.8    62     28.5    715.2 
 287   16:00   0.23   26.3    47   18.0    62     38.1    715.2 
 287   16:10   0.21   25.8    48   20.4    63     38.7    715.1 
 287   16:20   0.18   25.6    49   18.8    63     33.6    715.1 
 287   16:30   0.15   25.4    50   17.4    61     31.6    715.2 
 287   16:40   0.12   25.2    50   20.9    62     39.8    715.2 
 287   16:50   0.09   24.9    51   20.6    55     34.7    715.2 
 287   17:00   0.06   24.6    52   21.9    64     36.3    715.3 
 287   17:10   0.03   24.2    54   21.2    62     37.9    715.3 
 287   17:20   0.01   24.0    54   19.8    64     35.8    715.4 
 287   17:30   0.00   23.7    54   23.6    59     41.5    715.3 
 287   17:40   0.00   23.5    53   22.9    60     39.7    715.4 
 287   17:50   0.00   23.3    52   21.5    54     37.3    715.5 
 287   18:00   0.00   23.2    50   23.0    55     36.9    715.6 
 287   18:10   0.00   23.1    52   26.2    57     44.0    715.6 
 287   18:20   0.00   22.9    52   25.0    67     41.6    715.8 
 287   18:30   0.00   22.7    52   23.1    67     39.4    715.9 
 287   18:40   0.00   22.7    50   20.6    63     44.9    716.0 
 287   18:50   0.00   22.7    48   28.2    61     46.2    716.0 
 287   19:00   0.00   22.6    47   23.7    62     41.8    716.1 
 287   19:10   0.00   22.6    46   28.6    62     43.5    716.2 
 287   19:20   0.00   22.5    46   27.8    57     43.4    716.2 
 287   19:30   0.00   22.1    47   22.0    60     41.1    716.3 
 287   19:40   0.00   22.1    47   25.5    59     44.9    716.4 
 287   19:50   0.00   22.2    46   26.8    57     43.0    716.4 
 287   20:00   0.00   22.1    47   25.0    54     39.3    716.5 
 287   20:10   0.00   21.9    48   23.9    56     38.6    716.6 
 287   20:20   0.00   21.8    48   23.3    57     40.7    716.7 
 287   20:30   0.00   21.8    48   23.9    56     40.4    716.6 
 287   20:40   0.00   21.7    49   21.5    55     38.0    716.7 
 287   20:50   0.00   21.7    49   22.0    56     39.4    716.9 
 287   21:00   0.00   21.6    49   21.8    56     37.1    717.0 
 287   21:10   0.00   21.5    48   18.9    54     35.0    717.1 
 287   21:20   0.00   21.5    47   19.5    55     32.8    717.1 
 287   21:30   0.00   21.5    48   19.3    53     34.7    717.2 
 287   21:40   0.00   21.4    49   21.3    55     35.1    717.2 
 287   21:50   0.00   21.1    50   21.1    59     35.8    717.3 
 287   22:00   0.00   21.0    50   23.2    56     40.0    717.2 
 287   22:10   0.00   21.0    49   22.4    54     38.0    717.1 
 287   22:20   0.00   20.8    50   23.7    55     37.2    717.2 
 287   22:30   0.00   20.7    50   22.7    54     34.7    717.3 
 287   22:40   0.00   20.6    49   21.7    55     34.2    717.3 
 287   22:50   0.00   20.5    49   19.7    59     32.5    717.4 
 287   23:00   0.00   20.3    49   20.0    64     33.5    717.5 
 287   23:10   0.00   20.2    48   22.0    64     34.3    717.5 
 287   23:20   0.00   20.0    49   19.2    64     31.3    717.5 
 287   23:30   0.00   20.1    49   17.7    63     30.8    717.5 
 287   23:40   0.00   20.6    45   19.5    62     35.5    717.5 
 287   23:50   0.00   23.7    26   24.8    65     42.5    717.3 
 288    0:00   0.00   23.9    29   19.5    61     40.5    717.4 
 288    0:10   0.00   24.4    22   23.9    67     39.1    717.3 
 288    0:20   0.00   24.6    22   24.6    68     42.2    717.3 
 288    0:30   0.00   25.1    18   24.5    71     39.3    717.5 
 288    0:40   0.00   23.6    30   16.6    67     30.8    717.7 
 288    0:50   0.00   20.4    50   16.1    70     28.6    717.7 
 288    1:00   0.00   22.2    36   19.2    68     36.2    717.5 
 288    1:10   0.00   23.6    28   25.0    71     42.6    717.5 
 288    1:20   0.00   24.2    25   20.8    69     39.0    717.6 
 288    1:30   0.00   25.7    17   24.3    70     43.6    717.6 
 288    1:40   0.00   24.9    20   23.6    70     39.5    717.7 
 288    1:50   0.00   25.3    18   21.9    67     39.4    717.8 
 288    2:00   0.00   26.1    16   19.9    66     35.1    717.8 
 288    2:10   0.00   27.6     9   25.8    74     45.9    717.7 
 288    2:20   0.00   28.9     6   33.1    74     52.1    717.4 
 288    2:30   0.00   29.3     6   33.4    74     50.9    717.2 
 288    2:40   0.00   29.1     6   31.0    72     48.3    717.3 
 288    2:50   0.00   28.4     8   27.5    69     46.7    717.4 
 288    3:00   0.00   27.6    11   25.9    72     46.0    717.4 
 288    3:10   0.00   27.5    11   27.5    72     42.7    717.4 
 288    3:20   0.00   27.3    12   27.1    72     45.1    717.4 
 288    3:30   0.00   26.9    11   23.5    69     39.5    717.6 
 288    3:40   0.00   26.0    11   20.7    68     35.8    717.7 
 288    3:50   0.00   26.7     8   23.9    73     38.7    717.6 
 288    4:00   0.00   27.6     8   27.8    71     47.0    717.5 
 288    4:10   0.00   27.2     9   25.8    71     44.5    717.7 
 288    4:20   0.00   26.8     8   25.0    70     40.7    717.8 
 288    4:30   0.00   27.3     8   26.5    67     46.2    717.7 
 288    4:40   0.00   28.1     6   29.2    72     47.8    717.7 
 288    4:50   0.00   28.2     6   28.3    70     44.2    717.8 
 288    5:00   0.00   28.2     6   25.7    73     44.1    718.0 
 288    5:10   0.00   28.3     6   24.3    72     37.5    718.1 
 288    5:20   0.00   27.9     6   23.2    68     36.5    718.2 
 288    5:30   0.00   27.8     6   23.9    70     42.2    718.2 
 288    5:40   0.00   27.7     6   20.0    68     36.7    718.5 
 288    5:50   0.00   28.1     5   22.1    67     36.2    718.5 
 288    6:00   0.00   28.1     6   20.5    64     36.7    718.7 
 288    6:10   0.00   28.8     5   21.5    69     38.2    718.7 
 288    6:20   0.01   29.3     4   24.1    71     42.3    718.7 
 288    6:30   0.02   29.5     5   20.3    70     38.2    718.8 
 288    6:40   0.04   29.8     4   22.2    73     37.1    718.9 
 288    6:50   0.06   30.2     4   24.1    72     41.5    718.9 
 288    7:00   0.10   30.7     4   22.1    74     37.3    719.0 
 288    7:10   0.13   31.2     4   21.7    74     36.0    719.2 
 288    7:20   0.16   31.2     4   21.8    73     36.0    719.3 
 288    7:30   0.18   31.5     4   20.9    74     36.8    719.4 
 288    7:40   0.21   32.0     5   19.0    74     33.7    719.5 
 288    7:50   0.24   32.4     5   18.9    74     32.3    719.6 
 288    8:00   0.26   32.8     6   18.6    73     32.8    719.7 
 288    8:10   0.29   33.1     6   16.9    70     33.3    719.8 
 288    8:20   0.32   33.6     6   15.2    74     28.5    719.9 
 288    8:30   0.34   33.6     6   13.4    74     27.5    720.0 
 288    8:40   0.37   33.8     5   13.0    73     26.3    720.0 
 288    8:50   0.39   34.5     5   12.3    75     24.3    720.0 
 288    9:00   0.41   34.4     5   12.0    75     23.6    720.1 
 288    9:10   0.43   34.2     6   13.4    75     25.7    720.1 
 288    9:20   0.46   34.4     6   15.2    75     26.0    720.1 
 288    9:30   0.47   34.5     5   14.2    75     29.0    720.1 
 288    9:40   0.49   35.3     6   12.6    76     24.7    720.2 
 288    9:50   0.51   35.5     5   13.0    72     27.4    720.2 
 288   10:00   0.53   36.0     5   11.6    74     26.4    720.3 
 288   10:10   0.54   36.5     6   11.0    76     24.2    720.2 
 288   10:20   0.56   37.0     5   11.7    75     24.7    720.2 
 288   10:30   0.57   37.5     5   12.7    82     26.7    720.2 
 288   10:40   0.58   37.5     4   12.3    77     25.4    720.2 

Return to Slide Mountain graphs page.


Western Regional Climate Center,wrcc@dri.edu